createdAt,value
2022-10-25T00:01:51.230Z,23.73
2022-10-25T00:04:55.159Z,19.83
2022-10-25T00:07:58.933Z,28.43
2022-10-25T00:11:02.672Z,31.23
2022-10-25T00:14:08.353Z,23.17
2022-10-25T00:17:13.669Z,27.70
2022-10-25T00:20:17.785Z,21.60
2022-10-25T00:23:21.753Z,25.43
2022-10-25T00:26:25.319Z,29.53
2022-10-25T00:29:29.117Z,21.77
2022-10-25T00:32:34.335Z,21.13
2022-10-25T00:35:38.641Z,29.43
2022-10-25T00:38:42.870Z,25.67
2022-10-25T00:41:46.687Z,27.63
2022-10-25T00:44:56.314Z,29.77
2022-10-25T00:48:04.923Z,30.87
2022-10-25T00:51:09.155Z,34.70
2022-10-25T00:54:17.572Z,27.87
2022-10-25T00:57:25.193Z,22.10
2022-10-25T01:00:29.199Z,24.30
2022-10-25T01:03:38.593Z,25.53
2022-10-25T01:06:46.963Z,29.30
2022-10-25T01:09:51.524Z,22.40
2022-10-25T01:12:55.958Z,23.97
2022-10-25T01:16:08.769Z,26.60
2022-10-25T01:19:31.114Z,19.37
2022-10-25T01:22:40.487Z,18.07
2022-10-25T01:26:16.125Z,21.13
2022-10-25T01:29:49.680Z,29.57
2022-10-25T01:33:15.422Z,25.57
2022-10-25T01:36:26.765Z,21.30
2022-10-25T01:39:34.486Z,23.13
2022-10-25T01:42:47.193Z,24.83
2022-10-25T01:45:59.991Z,25.53
2022-10-25T01:49:07.601Z,28.70
2022-10-25T01:52:11.414Z,29.73
2022-10-25T01:55:16.824Z,20.07
2022-10-25T01:58:36.297Z,19.70
2022-10-25T02:01:52.467Z,17.50
2022-10-25T02:05:05.476Z,21.50
2022-10-25T02:08:18.698Z,18.67
2022-10-25T02:11:25.714Z,22.90
2022-10-25T02:14:36.142Z,20.33
2022-10-25T02:17:44.548Z,22.47
2022-10-25T02:20:52.452Z,23.40
2022-10-25T02:23:58.103Z,30.83
2022-10-25T02:27:04.593Z,20.17
2022-10-25T02:30:09.302Z,23.30
2022-10-25T02:33:13.602Z,24.37
2022-10-25T02:36:21.812Z,23.50
2022-10-25T02:39:30.560Z,17.30
2022-10-25T02:42:35.223Z,25.30
2022-10-25T02:45:40.590Z,22.57
2022-10-25T02:48:44.809Z,21.40
2022-10-25T02:54:59.062Z,15.10
2022-10-25T02:58:02.828Z,22.07
2022-10-25T03:01:08.002Z,20.60
2022-10-25T03:04:11.683Z,25.63
2022-10-25T03:07:16.802Z,18.00
2022-10-25T03:10:20.539Z,21.17
2022-10-25T03:13:24.353Z,23.83
2022-10-25T03:16:28.354Z,26.80
2022-10-25T03:19:32.032Z,30.37
2022-10-25T03:22:37.203Z,24.00
2022-10-25T03:25:41.573Z,21.50
2022-10-25T03:28:45.348Z,17.67
2022-10-25T03:31:48.993Z,20.93
2022-10-25T03:34:52.508Z,25.13
2022-10-25T03:37:57.592Z,26.33
2022-10-25T03:41:01.323Z,18.13
2022-10-25T03:44:05.218Z,22.43
2022-10-25T03:47:08.859Z,21.70
2022-10-25T03:50:12.739Z,23.87
2022-10-25T03:53:17.989Z,32.27
2022-10-25T03:56:21.563Z,24.67
2022-10-25T03:59:25.320Z,20.47
2022-10-25T04:02:29.842Z,18.67
2022-10-25T04:05:34.044Z,21.47
2022-10-25T04:08:39.640Z,27.23
2022-10-25T04:11:43.433Z,19.47
2022-10-25T04:14:47.521Z,19.90
2022-10-25T04:17:51.534Z,24.70
2022-10-25T04:20:55.331Z,20.53
2022-10-25T04:24:03.456Z,24.17
2022-10-25T04:27:08.284Z,19.77
2022-10-25T04:30:13.023Z,27.27
2022-10-25T04:33:16.924Z,24.17
2022-10-25T04:36:20.894Z,20.73
2022-10-25T04:39:27.323Z,22.73
2022-10-25T04:42:31.273Z,23.00
2022-10-25T04:45:34.923Z,29.47
2022-10-25T04:48:38.866Z,18.80
2022-10-25T04:51:43.052Z,26.63
2022-10-25T04:54:48.243Z,25.93
2022-10-25T04:57:53.307Z,25.63
2022-10-25T05:01:01.328Z,31.37
2022-10-25T05:04:05.484Z,39.53
2022-10-25T05:07:09.223Z,28.33
2022-10-25T05:10:14.423Z,32.67
2022-10-25T05:13:18.103Z,28.47
2022-10-25T05:16:24.157Z,29.10
2022-10-25T05:19:27.943Z,27.03
2022-10-25T05:22:32.617Z,35.70
2022-10-25T05:25:37.726Z,28.63
2022-10-25T05:28:42.956Z,35.10
2022-10-25T05:31:46.643Z,36.17
2022-10-25T05:34:50.347Z,30.07
2022-10-25T05:37:54.108Z,38.30
2022-10-25T05:41:00.658Z,38.97
2022-10-25T05:44:04.365Z,36.17
2022-10-25T05:47:08.197Z,26.67
2022-10-25T05:50:11.986Z,28.53
2022-10-25T05:53:15.867Z,23.33
2022-10-25T05:56:22.877Z,32.40
2022-10-25T05:59:26.697Z,38.97
2022-10-25T06:02:30.558Z,24.60
2022-10-25T06:05:34.485Z,37.33
2022-10-25T06:08:39.285Z,32.23
2022-10-25T06:11:44.723Z,24.40
2022-10-25T06:14:48.495Z,34.30
2022-10-25T06:17:52.257Z,33.63
2022-10-25T06:20:56.147Z,24.90
2022-10-25T06:24:01.176Z,36.63
2022-10-25T06:27:06.638Z,27.77
2022-10-25T06:30:11.749Z,36.57
2022-10-25T06:33:15.593Z,35.60
2022-10-25T06:36:21.220Z,29.83
2022-10-25T06:39:25.160Z,25.00
2022-10-25T06:42:30.325Z,30.03
2022-10-25T06:45:35.213Z,26.97
2022-10-25T06:48:39.740Z,33.03
2022-10-25T06:51:43.583Z,26.00
2022-10-25T06:54:47.492Z,26.00
2022-10-25T06:57:52.611Z,24.73
2022-10-25T07:00:56.490Z,26.87
2022-10-25T07:04:00.272Z,20.57
2022-10-25T07:07:03.983Z,22.47
2022-10-25T07:10:08.179Z,25.53
2022-10-25T07:13:13.342Z,22.23
2022-10-25T07:16:19.569Z,21.43
2022-10-25T07:19:24.863Z,24.20
2022-10-25T07:22:28.959Z,23.70
2022-10-25T07:25:32.747Z,20.07
2022-10-25T07:28:38.143Z,25.13
2022-10-25T07:31:43.410Z,20.70
2022-10-25T07:34:47.258Z,21.75
2022-10-25T07:37:51.070Z,20.50
2022-10-25T07:40:58.288Z,22.60
2022-10-25T07:44:03.622Z,20.45
2022-10-25T07:47:07.419Z,23.08
2022-10-25T07:50:11.610Z,22.25
2022-10-25T07:53:15.453Z,20.77
2022-10-25T07:56:23.766Z,25.13
2022-10-25T07:59:29.273Z,27.15
2022-10-25T08:02:33.063Z,26.25
2022-10-25T08:05:36.799Z,20.90
2022-10-25T08:08:40.512Z,19.08
2022-10-25T08:11:44.473Z,24.65
2022-10-25T08:14:49.830Z,23.98
2022-10-25T08:18:00.111Z,16.63
2022-10-25T08:21:05.590Z,17.15
2022-10-25T08:24:09.874Z,18.17
2022-10-25T08:27:13.599Z,24.88
2022-10-25T08:30:19.116Z,20.23
2022-10-25T08:33:22.963Z,21.05
2022-10-25T08:36:28.283Z,16.27
2022-10-25T08:39:32.150Z,21.45
2022-10-25T08:42:51.719Z,19.98
2022-10-25T08:46:01.483Z,16.88
2022-10-25T08:49:17.069Z,14.90
2022-10-25T08:52:27.062Z,19.65
2022-10-25T08:55:35.053Z,13.65
2022-10-25T08:58:46.512Z,18.92
2022-10-25T09:01:56.875Z,23.15
2022-10-25T09:05:01.205Z,21.05
2022-10-25T09:08:26.881Z,25.42
2022-10-25T09:11:49.160Z,18.38
2022-10-25T09:15:00.123Z,24.85
2022-10-25T09:18:14.880Z,20.52
2022-10-25T09:21:23.165Z,21.35
2022-10-25T09:24:31.650Z,29.05
2022-10-25T09:27:37.769Z,20.52
2022-10-25T09:30:46.351Z,18.70
2022-10-25T09:34:00.131Z,27.13
2022-10-25T09:37:16.089Z,22.52
2022-10-25T09:40:22.949Z,20.75
2022-10-25T09:43:32.485Z,21.23
2022-10-25T09:46:42.670Z,18.58
2022-10-25T09:49:54.621Z,23.33
2022-10-25T09:53:11.919Z,23.65
2022-10-25T09:56:17.542Z,19.23
2022-10-25T09:59:21.363Z,24.95
2022-10-25T10:02:27.499Z,17.42
2022-10-25T10:05:33.750Z,22.25
2022-10-25T10:08:37.974Z,32.28
2022-10-25T10:11:43.965Z,28.83
2022-10-25T10:14:54.946Z,26.27
2022-10-25T10:18:27.844Z,24.25
2022-10-25T10:21:34.245Z,26.88
2022-10-25T10:24:40.264Z,23.52
2022-10-25T10:27:44.093Z,25.10
2022-10-25T10:30:55.263Z,20.58
2022-10-25T10:33:59.054Z,23.45
2022-10-25T10:37:14.676Z,26.90
2022-10-25T10:40:25.761Z,24.55
2022-10-25T10:43:32.616Z,19.25
2022-10-25T10:46:47.910Z,22.83
2022-10-25T10:49:54.484Z,28.08
2022-10-25T10:53:02.004Z,29.65
2022-10-25T10:56:07.581Z,30.02
2022-10-25T10:59:29.022Z,22.35
2022-10-25T11:02:41.425Z,24.13
2022-10-25T11:05:54.953Z,25.30
2022-10-25T11:09:20.521Z,27.67
2022-10-25T11:12:24.190Z,26.73
2022-10-25T11:15:30.181Z,25.88
2022-10-25T11:18:43.729Z,32.17
2022-10-25T11:22:17.972Z,28.45
2022-10-25T11:25:36.700Z,28.80
2022-10-25T11:28:50.311Z,33.95
2022-10-25T11:32:04.549Z,23.95
2022-10-25T11:35:24.732Z,34.00
2022-10-25T11:38:56.930Z,25.08
2022-10-25T11:42:16.795Z,26.58
2022-10-25T11:45:34.399Z,31.40
2022-10-25T11:48:52.178Z,26.70
2022-10-25T11:52:12.385Z,27.25
2022-10-25T11:55:29.110Z,28.38
2022-10-25T11:58:44.518Z,25.23
2022-10-25T12:02:01.001Z,25.98
2022-10-25T12:05:19.518Z,28.83
2022-10-25T12:08:32.518Z,25.13
2022-10-25T12:11:43.587Z,30.10
2022-10-25T12:14:54.311Z,23.05
2022-10-25T12:17:58.223Z,23.33
2022-10-25T12:21:03.252Z,17.85
2022-10-25T12:24:13.132Z,23.00
2022-10-25T12:27:20.338Z,31.63
2022-10-25T12:33:38.237Z,24.60
2022-10-25T12:36:45.214Z,24.85
2022-10-25T12:39:49.549Z,23.60
2022-10-25T12:42:56.918Z,24.90
2022-10-25T12:46:18.373Z,25.48
2022-10-25T12:49:49.373Z,23.15
2022-10-25T12:53:18.088Z,21.70
2022-10-25T12:56:31.421Z,24.77
2022-10-25T12:59:45.964Z,28.63
2022-10-25T13:03:21.817Z,21.88
2022-10-25T13:06:34.252Z,28.15
2022-10-25T13:09:40.090Z,23.98
2022-10-25T13:12:58.919Z,34.60
2022-10-25T13:16:04.705Z,21.48
2022-10-25T13:19:53.037Z,28.67
2022-10-25T13:22:55.112Z,26.45
2022-10-25T13:26:08.701Z,30.27
2022-10-25T13:29:45.599Z,24.20
2022-10-25T13:34:06.439Z,23.10
2022-10-25T13:37:43.380Z,27.75
2022-10-25T13:41:07.523Z,20.80
2022-10-25T13:44:24.520Z,22.85
2022-10-25T13:47:35.917Z,17.60
2022-10-25T13:50:45.106Z,29.67
2022-10-25T13:53:56.059Z,26.80
2022-10-25T13:57:01.261Z,21.98
2022-10-25T14:00:13.036Z,25.38
2022-10-25T14:03:38.779Z,23.98
2022-10-25T14:06:43.149Z,30.65
2022-10-25T14:09:52.703Z,32.30
2022-10-25T14:13:12.701Z,20.58
2022-10-25T14:16:25.755Z,24.83
2022-10-25T14:19:37.940Z,31.13
2022-10-25T14:22:44.858Z,24.35
2022-10-25T14:25:53.339Z,20.35
2022-10-25T14:29:14.639Z,26.50
2022-10-25T14:32:22.184Z,24.20
2022-10-25T14:35:30.421Z,21.30
2022-10-25T14:38:37.180Z,27.40
2022-10-25T14:41:42.443Z,19.13
2022-10-25T14:44:49.322Z,28.58
2022-10-25T14:47:53.463Z,26.77
2022-10-25T14:50:59.212Z,26.52
2022-10-25T14:54:05.804Z,27.75
2022-10-25T14:57:14.542Z,32.85
2022-10-25T15:00:22.953Z,30.88
2022-10-25T15:03:29.314Z,40.13
2022-10-25T15:06:34.009Z,43.40
2022-10-25T15:09:51.018Z,29.38
2022-10-25T15:12:54.789Z,42.67
2022-10-25T15:16:04.234Z,41.70
2022-10-25T15:19:19.329Z,27.73
2022-10-25T15:22:30.339Z,32.05
2022-10-25T15:25:39.140Z,33.40
2022-10-25T15:28:55.783Z,31.60
2022-10-25T15:32:00.959Z,42.03
2022-10-25T15:35:05.319Z,42.80
2022-10-25T15:38:11.639Z,34.28
2022-10-25T15:41:15.440Z,35.85
2022-10-25T15:44:19.189Z,43.22
2022-10-25T15:47:32.380Z,38.58
2022-10-25T15:50:36.079Z,32.80
2022-10-25T15:53:40.004Z,42.85
2022-10-25T15:56:44.082Z,41.53
2022-10-25T15:59:47.982Z,45.00
2022-10-25T16:02:54.229Z,29.77
2022-10-25T16:05:57.930Z,39.45
2022-10-25T16:09:02.953Z,39.47
2022-10-25T16:12:08.046Z,41.53
2022-10-25T16:15:14.429Z,45.30
2022-10-25T16:18:19.744Z,44.38
2022-10-25T16:21:23.839Z,45.83
2022-10-25T16:24:29.647Z,42.42
2022-10-25T16:27:33.259Z,44.20
2022-10-25T16:30:39.419Z,47.05
2022-10-25T16:33:45.982Z,35.50
2022-10-25T16:36:51.018Z,51.45
2022-10-25T16:39:54.932Z,30.50
2022-10-25T16:42:59.239Z,41.10
2022-10-25T16:46:03.029Z,43.67
2022-10-25T16:49:09.568Z,36.97
2022-10-25T16:52:13.430Z,38.58
2022-10-25T16:55:17.191Z,38.08
2022-10-25T16:58:21.042Z,35.50
2022-10-25T17:01:29.299Z,38.38
2022-10-25T17:04:34.545Z,34.55
2022-10-25T17:10:49.074Z,40.90
2022-10-25T17:13:52.721Z,41.92
2022-10-25T17:17:00.763Z,46.30
2022-10-25T17:20:09.939Z,45.42
2022-10-25T17:23:13.706Z,44.10
2022-10-25T17:26:17.972Z,50.13
2022-10-25T17:29:21.602Z,52.83
2022-10-25T17:32:25.349Z,44.30
2022-10-25T17:35:31.066Z,46.92
2022-10-25T17:38:34.841Z,46.17
2022-10-25T17:41:39.119Z,55.13
2022-10-25T17:46:20.831Z,56.15
2022-10-25T17:55:13.733Z,46.25
2022-10-25T17:58:28.362Z,47.58
2022-10-25T18:01:45.133Z,48.15
2022-10-25T18:05:20.203Z,64.32
2022-10-25T18:08:28.348Z,46.03
2022-10-25T18:11:32.179Z,50.85
2022-10-25T18:14:37.593Z,55.92
2022-10-25T18:17:41.545Z,52.53
2022-10-25T18:20:51.442Z,59.50
2022-10-25T18:24:00.200Z,57.88
2022-10-25T18:27:04.040Z,68.50
2022-10-25T18:30:11.161Z,60.97
2022-10-25T18:33:15.252Z,74.15
2022-10-25T18:36:20.702Z,72.43
2022-10-25T18:39:24.521Z,66.78
2022-10-25T18:42:28.243Z,64.10
2022-10-25T18:45:37.109Z,47.53
2022-10-25T18:48:42.353Z,47.45
2022-10-25T18:51:46.232Z,39.40
2022-10-25T18:54:50.072Z,54.15
2022-10-25T18:57:55.229Z,50.47
2022-10-25T19:01:08.033Z,46.92
2022-10-25T19:04:11.994Z,38.95
2022-10-25T19:07:15.801Z,46.45
2022-10-25T19:10:19.792Z,42.25
2022-10-25T19:13:23.381Z,42.80
2022-10-25T19:16:28.602Z,46.10
2022-10-25T19:19:32.392Z,38.58
2022-10-25T19:22:36.310Z,50.78
2022-10-25T19:25:40.102Z,39.28
2022-10-25T19:28:44.262Z,38.55
2022-10-25T19:31:50.132Z,46.50
2022-10-25T19:34:53.876Z,37.25
2022-10-25T19:37:57.573Z,40.83
2022-10-25T19:41:02.459Z,42.27
2022-10-25T19:44:09.432Z,32.50
2022-10-25T19:47:15.144Z,41.78
2022-10-25T19:50:18.930Z,39.88
2022-10-25T19:53:23.113Z,47.13
2022-10-25T19:56:27.003Z,42.63
2022-10-25T19:59:30.940Z,42.85
2022-10-25T20:02:36.283Z,43.35
2022-10-25T20:05:40.250Z,44.92
2022-10-25T20:08:46.563Z,44.63
2022-10-25T20:11:50.374Z,48.78
2022-10-25T20:14:53.999Z,47.33
2022-10-25T20:17:59.922Z,38.95
2022-10-25T20:21:06.193Z,38.88
2022-10-25T20:24:11.183Z,38.42
2022-10-25T20:27:15.053Z,40.00
2022-10-25T20:30:18.982Z,33.75
2022-10-25T20:33:24.280Z,32.85
2022-10-25T20:36:28.122Z,33.58
2022-10-25T20:39:31.833Z,32.42
2022-10-25T20:42:35.464Z,41.35
2022-10-25T20:45:41.619Z,34.30
2022-10-25T20:48:47.000Z,39.90
2022-10-25T20:51:50.843Z,45.17
2022-10-25T20:54:54.808Z,38.80
2022-10-25T20:57:58.451Z,42.13
2022-10-25T21:01:02.603Z,51.33
2022-10-25T21:04:07.815Z,37.17
2022-10-25T21:07:11.579Z,38.70
2022-10-25T21:10:15.294Z,39.10
2022-10-25T21:13:19.193Z,37.40
2022-10-25T21:16:23.503Z,47.90
2022-10-25T21:19:28.679Z,40.13
2022-10-25T21:22:32.468Z,37.85
2022-10-25T21:25:36.533Z,28.50
2022-10-25T21:28:42.110Z,36.97
2022-10-25T21:31:45.920Z,40.13
2022-10-25T21:34:50.894Z,31.13
2022-10-25T21:37:55.456Z,31.27
2022-10-25T21:41:07.589Z,25.30
2022-10-25T21:44:11.356Z,39.23
2022-10-25T21:47:15.773Z,27.50
2022-10-25T21:50:20.899Z,38.87
2022-10-25T21:53:24.670Z,30.03
2022-10-25T21:56:31.428Z,30.37
2022-10-25T21:59:35.420Z,35.60
2022-10-25T22:02:39.470Z,30.43
2022-10-25T22:05:47.673Z,33.57
2022-10-25T22:08:52.142Z,29.77
2022-10-25T22:11:55.812Z,30.47
2022-10-25T22:14:59.563Z,42.53
2022-10-25T22:18:03.262Z,38.17
2022-10-25T22:21:10.673Z,43.83
2022-10-25T22:24:14.858Z,37.20
2022-10-25T22:27:18.475Z,44.10
2022-10-25T22:30:22.222Z,39.57
2022-10-25T22:33:26.004Z,45.87
2022-10-25T22:36:32.641Z,39.53
2022-10-25T22:39:36.464Z,38.47
2022-10-25T22:42:40.137Z,37.20
2022-10-25T22:45:43.866Z,39.17
2022-10-25T22:48:47.894Z,35.57
2022-10-25T22:51:53.042Z,27.83
2022-10-25T22:54:56.678Z,37.23
2022-10-25T22:58:00.357Z,32.03
2022-10-25T23:01:06.017Z,35.57
2022-10-25T23:04:11.187Z,33.20
2022-10-25T23:07:16.482Z,25.30
2022-10-25T23:10:20.160Z,22.83
2022-10-25T23:13:23.903Z,26.97
2022-10-25T23:16:28.825Z,23.20
2022-10-25T23:19:32.556Z,38.10
2022-10-25T23:22:37.901Z,29.00
2022-10-25T23:25:41.537Z,26.17
2022-10-25T23:28:45.064Z,30.13
2022-10-25T23:31:48.537Z,27.33
2022-10-25T23:34:53.759Z,28.60
2022-10-25T23:38:01.787Z,29.60
2022-10-25T23:41:05.969Z,29.73
2022-10-25T23:44:09.524Z,20.77
2022-10-25T23:47:13.265Z,18.73
2022-10-25T23:50:17.349Z,29.37
2022-10-25T23:53:22.516Z,24.10
2022-10-25T23:56:25.983Z,27.90
2022-10-25T23:59:29.706Z,23.00
